createdAt,value
2018-02-13T00:00:33.022Z,957.02
2018-02-13T00:01:33.034Z,957
2018-02-13T00:02:33.046Z,957.02
2018-02-13T00:03:33.055Z,956.98
2018-02-13T00:04:33.067Z,956.99
2018-02-13T00:05:33.078Z,957.04
2018-02-13T00:06:33.090Z,956.99
2018-02-13T00:07:33.101Z,957.02
2018-02-13T00:08:33.111Z,957
2018-02-13T00:09:33.122Z,956.96
2018-02-13T00:10:33.135Z,957.02
2018-02-13T00:11:33.150Z,956.98
2018-02-13T00:12:33.157Z,957.04
2018-02-13T00:13:33.169Z,957.02
2018-02-13T00:14:33.179Z,957
2018-02-13T00:15:33.189Z,957.03
2018-02-13T00:16:33.202Z,957.05
2018-02-13T00:17:33.214Z,957.01
2018-02-13T00:18:33.225Z,957.06
2018-02-13T00:19:33.234Z,957.03
2018-02-13T00:20:33.245Z,956.99
2018-02-13T00:21:33.255Z,957.01
2018-02-13T00:22:33.270Z,957
2018-02-13T00:23:33.280Z,957.03
2018-02-13T00:24:33.289Z,957.02
2018-02-13T00:25:33.300Z,957.03
2018-02-13T00:26:33.311Z,956.99
2018-02-13T00:27:33.323Z,956.98
2018-02-13T00:28:33.335Z,957.06
2018-02-13T00:29:33.347Z,957.04
2018-02-13T00:30:33.356Z,957
2018-02-13T00:31:33.366Z,957.04
2018-02-13T00:32:33.393Z,957
2018-02-13T00:33:33.389Z,957
2018-02-13T00:34:33.399Z,956.98
2018-02-13T00:35:33.411Z,956.93
2018-02-13T00:36:33.422Z,956.94
2018-02-13T00:37:33.432Z,956.94
2018-02-13T00:38:33.445Z,956.95
2018-02-13T00:39:33.461Z,956.95
2018-02-13T00:40:33.467Z,956.99
2018-02-13T00:41:33.477Z,956.98
2018-02-13T00:42:33.489Z,956.93
2018-02-13T00:43:33.500Z,956.95
2018-02-13T00:44:33.514Z,956.93
2018-02-13T00:45:33.524Z,956.96
2018-02-13T00:46:33.544Z,956.89
2018-02-13T00:47:33.547Z,956.95
2018-02-13T00:48:33.557Z,956.91
2018-02-13T00:49:33.571Z,956.95
2018-02-13T00:50:33.579Z,956.93
2018-02-13T00:51:33.631Z,956.9
2018-02-13T00:52:33.601Z,956.91
2018-02-13T00:53:33.611Z,956.95
2018-02-13T00:54:33.627Z,956.9
2018-02-13T00:55:33.636Z,956.92
2018-02-13T00:56:33.646Z,956.9
2018-02-13T00:57:33.657Z,956.88
2018-02-13T00:58:33.668Z,956.9
2018-02-13T00:59:33.679Z,956.87
2018-02-13T01:00:33.692Z,956.85
2018-02-13T01:01:33.704Z,956.84
2018-02-13T01:02:33.714Z,956.86
2018-02-13T01:03:33.725Z,956.87
2018-02-13T01:04:33.736Z,956.82
2018-02-13T01:05:33.746Z,956.91
2018-02-13T01:06:33.759Z,956.87
2018-02-13T01:07:33.784Z,956.88
2018-02-13T01:08:33.782Z,956.81
2018-02-13T01:09:33.792Z,956.83
2018-02-13T01:10:33.803Z,956.84
2018-02-13T01:11:33.814Z,956.82
2018-02-13T01:12:33.827Z,956.82
2018-02-13T01:13:33.837Z,956.81
2018-02-13T01:14:33.854Z,956.8
2018-02-13T01:15:33.859Z,956.8
2018-02-13T01:16:33.873Z,956.82
2018-02-13T01:17:33.889Z,956.81
2018-02-13T01:18:33.893Z,956.79
2018-02-13T01:19:33.904Z,956.82
2018-02-13T01:20:33.915Z,956.76
2018-02-13T01:21:33.929Z,956.77
2018-02-13T01:22:33.943Z,956.76
2018-02-13T01:23:33.950Z,956.74
2018-02-13T01:24:33.960Z,956.78
2018-02-13T01:25:33.971Z,956.74
2018-02-13T01:26:33.984Z,956.79
2018-02-13T01:27:33.993Z,956.79
2018-02-13T01:28:34.004Z,956.76
2018-02-13T01:29:34.016Z,956.79
2018-02-13T01:30:34.027Z,956.79
2018-02-13T01:31:34.038Z,956.76
2018-02-13T01:32:34.049Z,956.78
2018-02-13T01:33:34.061Z,956.77
2018-02-13T01:34:34.072Z,956.78
2018-02-13T01:35:34.082Z,956.78
2018-02-13T01:36:34.095Z,956.73
2018-02-13T01:37:34.104Z,956.75
2018-02-13T01:38:34.116Z,956.78
2018-02-13T01:39:34.127Z,956.77
2018-02-13T01:40:34.138Z,956.79
2018-02-13T01:41:34.150Z,956.78
2018-02-13T01:42:34.160Z,956.78
2018-02-13T01:43:34.173Z,956.76
2018-02-13T01:44:34.183Z,956.77
2018-02-13T01:45:34.195Z,956.76
2018-02-13T01:46:34.206Z,956.77
2018-02-13T01:47:34.217Z,956.79
2018-02-13T01:48:34.230Z,956.76
2018-02-13T01:49:34.240Z,956.75
2018-02-13T01:50:34.250Z,956.75
2018-02-13T01:51:34.261Z,956.7
2018-02-13T01:52:34.273Z,956.74
2018-02-13T01:53:34.285Z,956.69
2018-02-13T01:54:34.296Z,956.74
2018-02-13T01:55:34.306Z,956.76
2018-02-13T01:56:34.317Z,956.77
2018-02-13T01:57:34.345Z,956.76
2018-02-13T01:58:34.340Z,956.77
2018-02-13T01:59:34.351Z,956.74
2018-02-13T02:00:34.362Z,956.8
2018-02-13T02:01:34.374Z,956.78
2018-02-13T02:02:34.385Z,956.79
2018-02-13T02:03:34.397Z,956.76
2018-02-13T02:04:34.409Z,956.75
2018-02-13T02:05:34.417Z,956.78
2018-02-13T02:06:34.429Z,956.8
2018-02-13T02:07:34.446Z,956.79
2018-02-13T02:08:34.451Z,956.83
2018-02-13T02:09:34.462Z,956.83
2018-02-13T02:10:34.473Z,956.83
2018-02-13T02:11:34.491Z,956.81
2018-02-13T02:12:34.495Z,956.81
2018-02-13T02:13:34.506Z,956.77
2018-02-13T02:14:34.519Z,956.81
2018-02-13T02:15:34.528Z,956.78
2018-02-13T02:16:34.540Z,956.75
2018-02-13T02:17:34.553Z,956.77
2018-02-13T02:18:34.562Z,956.76
2018-02-13T02:19:34.574Z,956.73
2018-02-13T02:20:34.587Z,956.68
2018-02-13T02:21:34.598Z,956.72
2018-02-13T02:22:34.607Z,956.67
2018-02-13T02:23:34.620Z,956.69
2018-02-13T02:24:34.631Z,956.65
2018-02-13T02:25:34.648Z,956.66
2018-02-13T02:26:34.654Z,956.66
2018-02-13T02:27:34.665Z,956.65
2018-02-13T02:28:34.676Z,956.61
2018-02-13T02:29:34.686Z,956.63
2018-02-13T02:30:34.701Z,956.61
2018-02-13T02:31:34.724Z,956.59
2018-02-13T02:32:34.740Z,956.58
2018-02-13T02:33:34.733Z,956.61
2018-02-13T02:34:34.744Z,956.57
2018-02-13T02:35:34.755Z,956.6
2018-02-13T02:36:34.767Z,956.55
2018-02-13T02:37:34.780Z,956.6
2018-02-13T02:38:34.790Z,956.57
2018-02-13T02:39:34.803Z,956.59
2018-02-13T02:40:34.811Z,956.58
2018-02-13T02:41:34.825Z,956.59
2018-02-13T02:42:34.835Z,956.56
2018-02-13T02:43:34.847Z,956.59
2018-02-13T02:44:34.858Z,956.58
2018-02-13T02:45:34.869Z,956.56
2018-02-13T02:46:34.881Z,956.55
2018-02-13T02:47:34.893Z,956.56
2018-02-13T02:48:34.903Z,956.54
2018-02-13T02:49:34.913Z,956.5
2018-02-13T02:50:34.927Z,956.49
2018-02-13T02:51:34.936Z,956.48
2018-02-13T02:52:34.948Z,956.46
2018-02-13T02:53:34.958Z,956.47
2018-02-13T02:54:34.973Z,956.46
2018-02-13T02:55:34.992Z,956.49
2018-02-13T02:56:34.994Z,956.5
2018-02-13T02:57:35.006Z,956.45
2018-02-13T02:58:35.018Z,956.43
2018-02-13T02:59:35.029Z,956.44
2018-02-13T03:00:35.040Z,956.44
2018-02-13T03:01:35.051Z,956.44
2018-02-13T03:02:35.063Z,956.47
2018-02-13T03:03:35.078Z,956.41
2018-02-13T03:04:35.085Z,956.42
2018-02-13T03:05:35.097Z,956.38
2018-02-13T03:06:35.107Z,956.38
2018-02-13T03:07:35.120Z,956.37
2018-02-13T03:08:35.132Z,956.4
2018-02-13T03:09:35.142Z,956.4
2018-02-13T03:10:35.152Z,956.38
2018-02-13T03:11:35.165Z,956.39
2018-02-13T03:12:35.175Z,956.41
2018-02-13T03:13:35.186Z,956.41
2018-02-13T03:14:35.199Z,956.39
2018-02-13T03:15:35.227Z,956.41
2018-02-13T03:16:35.222Z,956.41
2018-02-13T03:17:35.231Z,956.41
2018-02-13T03:18:35.242Z,956.41
2018-02-13T03:19:35.254Z,956.43
2018-02-13T03:20:35.266Z,956.4
2018-02-13T03:21:35.277Z,956.39
2018-02-13T03:22:35.295Z,956.4
2018-02-13T03:23:35.300Z,956.38
2018-02-13T03:24:35.311Z,956.39
2018-02-13T03:25:35.322Z,956.36
2018-02-13T03:26:35.333Z,956.36
2018-02-13T03:27:35.347Z,956.33
2018-02-13T03:28:35.355Z,956.33
2018-02-13T03:29:35.367Z,956.39
2018-02-13T03:30:35.379Z,956.4
2018-02-13T03:31:35.388Z,956.36
2018-02-13T03:32:35.407Z,956.35
2018-02-13T03:33:35.411Z,956.36
2018-02-13T03:34:35.422Z,956.33
2018-02-13T03:35:35.434Z,956.34
2018-02-13T03:36:35.445Z,956.31
2018-02-13T03:37:35.454Z,956.33
2018-02-13T03:38:35.513Z,956.33
2018-02-13T03:39:35.475Z,956.3
2018-02-13T03:40:35.487Z,956.35
2018-02-13T03:41:35.500Z,956.3
2018-02-13T03:42:35.510Z,956.3
2018-02-13T03:43:35.525Z,956.32
2018-02-13T03:44:35.533Z,956.36
2018-02-13T03:45:35.543Z,956.37
2018-02-13T03:46:35.554Z,956.36
2018-02-13T03:47:35.565Z,956.36
2018-02-13T03:48:35.575Z,956.33
2018-02-13T03:49:35.589Z,956.34
2018-02-13T03:50:35.620Z,956.37
2018-02-13T03:51:35.609Z,956.35
2018-02-13T03:52:35.621Z,956.38
2018-02-13T03:53:35.630Z,956.36
2018-02-13T03:54:35.640Z,956.41
2018-02-13T03:55:35.652Z,956.39
2018-02-13T03:56:35.664Z,956.39
2018-02-13T03:57:35.686Z,956.39
2018-02-13T03:58:35.686Z,956.36
2018-02-13T03:59:35.698Z,956.4
2018-02-13T04:00:35.709Z,956.38
2018-02-13T04:01:35.719Z,956.38
2018-02-13T04:02:35.729Z,956.41
2018-02-13T04:03:35.740Z,956.38
2018-02-13T04:04:35.754Z,956.39
2018-02-13T04:05:35.764Z,956.42
2018-02-13T04:06:35.774Z,956.42
2018-02-13T04:07:35.786Z,956.4
2018-02-13T04:08:35.795Z,956.42
2018-02-13T04:09:35.808Z,956.36
2018-02-13T04:10:35.818Z,956.4
2018-02-13T04:11:35.831Z,956.39
2018-02-13T04:12:35.839Z,956.37
2018-02-13T04:13:35.854Z,956.41
2018-02-13T04:14:35.863Z,956.42
2018-02-13T04:15:35.872Z,956.38
2018-02-13T04:16:35.884Z,956.36
2018-02-13T04:17:35.895Z,956.35
2018-02-13T04:18:35.907Z,956.35
2018-02-13T04:19:35.916Z,956.34
2018-02-13T04:20:35.928Z,956.32
2018-02-13T04:21:35.939Z,956.35
2018-02-13T04:22:35.951Z,956.34
2018-02-13T04:23:35.960Z,956.32
2018-02-13T04:24:35.971Z,956.33
2018-02-13T04:25:35.982Z,956.32
2018-02-13T04:26:35.994Z,956.29
2018-02-13T04:27:36.008Z,956.35
2018-02-13T04:28:36.015Z,956.32
2018-02-13T04:29:36.026Z,956.35
2018-02-13T04:30:36.039Z,956.34
2018-02-13T04:31:36.051Z,956.34
2018-02-13T04:32:36.061Z,956.32
2018-02-13T04:33:36.071Z,956.32
2018-02-13T04:34:36.082Z,956.32
2018-02-13T04:35:36.095Z,956.35
2018-02-13T04:36:36.104Z,956.33
2018-02-13T04:37:36.114Z,956.34
2018-02-13T04:38:36.125Z,956.31
2018-02-13T04:39:36.135Z,956.33
2018-02-13T04:40:36.151Z,956.28
2018-02-13T04:41:36.157Z,956.3
2018-02-13T04:42:36.168Z,956.26
2018-02-13T04:43:36.178Z,956.3
2018-02-13T04:44:36.190Z,956.33
2018-02-13T04:45:36.202Z,956.27
2018-02-13T04:46:36.213Z,956.26
2018-02-13T04:47:36.245Z,956.3
2018-02-13T04:48:36.235Z,956.27
2018-02-13T04:49:36.245Z,956.3
2018-02-13T04:50:36.255Z,956.3
2018-02-13T04:51:36.266Z,956.3
2018-02-13T04:52:36.276Z,956.31
2018-02-13T04:53:36.287Z,956.28
2018-02-13T04:54:36.312Z,956.33
2018-02-13T04:55:36.309Z,956.3
2018-02-13T04:56:36.321Z,956.3
2018-02-13T04:57:36.332Z,956.3
2018-02-13T04:58:36.342Z,956.3
2018-02-13T04:59:36.352Z,956.24
2018-02-13T05:00:36.397Z,956.27
2018-02-13T05:01:36.378Z,956.28
2018-02-13T05:02:36.385Z,956.26
2018-02-13T05:03:36.395Z,956.32
2018-02-13T05:04:36.408Z,956.3
2018-02-13T05:05:36.418Z,956.27
2018-02-13T05:06:36.428Z,956.27
2018-02-13T05:07:36.438Z,956.31
2018-02-13T05:08:36.449Z,956.27
2018-02-13T05:09:36.461Z,956.27
2018-02-13T05:10:36.471Z,956.3
2018-02-13T05:11:36.481Z,956.28
2018-02-13T05:12:36.494Z,956.27
2018-02-13T05:13:36.503Z,956.27
2018-02-13T05:14:36.514Z,956.28
2018-02-13T05:15:36.538Z,956.28
2018-02-13T05:16:36.535Z,956.24
2018-02-13T05:17:36.546Z,956.28
2018-02-13T05:18:36.558Z,956.27
2018-02-13T05:19:36.571Z,956.26
2018-02-13T05:20:36.585Z,956.29
2018-02-13T05:21:36.589Z,956.29
2018-02-13T05:22:36.600Z,956.31
2018-02-13T05:23:36.611Z,956.27
2018-02-13T05:24:36.624Z,956.29
2018-02-13T05:25:36.632Z,956.25
2018-02-13T05:26:36.642Z,956.28
2018-02-13T05:27:36.654Z,956.29
2018-02-13T05:28:36.663Z,956.29
2018-02-13T05:29:36.675Z,956.27
2018-02-13T05:30:36.685Z,956.27
2018-02-13T05:31:36.697Z,956.26
2018-02-13T05:32:36.707Z,956.29
2018-02-13T05:33:36.717Z,956.21
2018-02-13T05:34:36.728Z,956.27
2018-02-13T05:35:36.740Z,956.26
2018-02-13T05:36:36.772Z,956.28
2018-02-13T05:37:36.765Z,956.23
2018-02-13T05:38:36.773Z,956.28
2018-02-13T05:39:36.780Z,956.25
2018-02-13T05:40:36.794Z,956.24
2018-02-13T05:41:36.804Z,956.27
2018-02-13T05:42:36.813Z,956.26
2018-02-13T05:43:36.837Z,956.25
2018-02-13T05:44:36.836Z,956.25
2018-02-13T05:45:36.846Z,956.23
2018-02-13T05:46:36.857Z,956.28
2018-02-13T05:47:36.867Z,956.26
2018-02-13T05:48:36.878Z,956.3
2018-02-13T05:49:36.889Z,956.24
2018-02-13T05:50:36.902Z,956.3
2018-02-13T05:51:36.911Z,956.28
2018-02-13T05:52:36.923Z,956.27
2018-02-13T05:53:36.931Z,956.29
2018-02-13T05:54:36.945Z,956.3
2018-02-13T05:55:36.953Z,956.3
2018-02-13T05:56:36.964Z,956.28
2018-02-13T05:57:36.975Z,956.26
2018-02-13T05:58:36.984Z,956.3
2018-02-13T05:59:36.995Z,956.25
2018-02-13T06:00:37.035Z,956.26
2018-02-13T06:01:37.015Z,956.25
2018-02-13T06:02:37.026Z,956.25
2018-02-13T06:03:37.036Z,956.25
2018-02-13T06:04:37.047Z,956.24
2018-02-13T06:05:37.057Z,956.31
2018-02-13T06:06:37.067Z,956.28
2018-02-13T06:07:37.077Z,956.31
2018-02-13T06:08:37.088Z,956.28
2018-02-13T06:09:37.100Z,956.29
2018-02-13T06:10:37.111Z,956.31
2018-02-13T06:11:37.128Z,956.27
2018-02-13T06:12:37.129Z,956.28
2018-02-13T06:13:37.139Z,956.29
2018-02-13T06:14:37.152Z,956.25
2018-02-13T06:15:37.161Z,956.24
2018-02-13T06:16:37.170Z,956.29
2018-02-13T06:17:37.182Z,956.28
2018-02-13T06:18:37.222Z,956.26
2018-02-13T06:19:37.203Z,956.3
2018-02-13T06:20:37.214Z,956.31
2018-02-13T06:21:37.225Z,956.28
2018-02-13T06:22:37.235Z,956.26
2018-02-13T06:23:37.244Z,956.28
2018-02-13T06:24:37.255Z,956.25
2018-02-13T06:25:37.266Z,956.29
2018-02-13T06:26:37.281Z,956.25
2018-02-13T06:27:37.287Z,956.29
2018-02-13T06:28:37.297Z,956.3
2018-02-13T06:29:37.310Z,956.28
2018-02-13T06:30:37.320Z,956.31
2018-02-13T06:31:37.330Z,956.32
2018-02-13T06:32:37.342Z,956.32
2018-02-13T06:33:37.352Z,956.29
2018-02-13T06:34:37.363Z,956.34
2018-02-13T06:35:37.373Z,956.33
2018-02-13T06:36:37.384Z,956.35
2018-02-13T06:37:37.395Z,956.35
2018-02-13T06:38:37.405Z,956.36
2018-02-13T06:39:37.416Z,956.36
2018-02-13T06:40:37.484Z,956.34
2018-02-13T06:41:37.449Z,956.35
2018-02-13T06:42:37.449Z,956.34
2018-02-13T06:43:37.459Z,956.39
2018-02-13T06:44:37.468Z,956.32
2018-02-13T06:45:37.478Z,956.34
2018-02-13T06:46:37.490Z,956.28
2018-02-13T06:47:37.502Z,956.31
2018-02-13T06:48:37.513Z,956.29
2018-02-13T06:49:37.522Z,956.26
2018-02-13T06:50:37.533Z,956.31
2018-02-13T06:51:37.544Z,956.31
2018-02-13T06:52:37.554Z,956.29
2018-02-13T06:53:37.565Z,956.31
2018-02-13T06:54:37.597Z,956.29
2018-02-13T06:55:37.587Z,956.32
2018-02-13T06:56:37.597Z,956.29
2018-02-13T06:57:37.610Z,956.28
2018-02-13T06:58:37.619Z,956.3
2018-02-13T06:59:37.631Z,956.27
2018-02-13T07:00:37.641Z,956.32
2018-02-13T07:01:37.663Z,956.3
2018-02-13T07:02:37.665Z,956.32
2018-02-13T07:03:37.674Z,956.3
2018-02-13T07:04:37.685Z,956.32
2018-02-13T07:05:37.701Z,956.3
2018-02-13T07:06:37.706Z,956.3
2018-02-13T07:07:37.715Z,956.32
2018-02-13T07:08:37.729Z,956.33
2018-02-13T07:09:37.738Z,956.31
2018-02-13T07:10:37.750Z,956.34
2018-02-13T07:11:37.760Z,956.3
2018-02-13T07:12:37.771Z,956.31
2018-02-13T07:13:37.783Z,956.32
2018-02-13T07:14:37.793Z,956.32
2018-02-13T07:15:37.806Z,956.3
2018-02-13T07:16:37.818Z,956.35
2018-02-13T07:17:37.827Z,956.33
2018-02-13T07:18:37.837Z,956.36
2018-02-13T07:19:37.851Z,956.34
2018-02-13T07:20:37.860Z,956.32
2018-02-13T07:21:37.872Z,956.32
2018-02-13T07:22:37.886Z,956.33
2018-02-13T07:23:37.893Z,956.3
2018-02-13T07:24:37.905Z,956.3
2018-02-13T07:25:37.914Z,956.33
2018-02-13T07:26:37.929Z,956.31
2018-02-13T07:27:37.939Z,956.34
2018-02-13T07:28:37.950Z,956.32
2018-02-13T07:29:37.959Z,956.32
2018-02-13T07:30:37.971Z,956.28
2018-02-13T07:31:37.985Z,956.3
2018-02-13T07:32:37.996Z,956.3
2018-02-13T07:33:38.005Z,956.3
2018-02-13T07:34:38.016Z,956.32
2018-02-13T07:35:38.027Z,956.31
2018-02-13T07:36:38.053Z,956.32
2018-02-13T07:37:38.049Z,956.3
2018-02-13T07:38:38.060Z,956.3
2018-02-13T07:39:38.071Z,956.29
2018-02-13T07:40:38.083Z,956.33
2018-02-13T07:41:38.094Z,956.27
2018-02-13T07:42:38.115Z,956.3
2018-02-13T07:43:38.121Z,956.31
2018-02-13T07:44:38.128Z,956.26
2018-02-13T07:45:38.139Z,956.24
2018-02-13T07:46:38.152Z,956.31
2018-02-13T07:47:38.162Z,956.33
2018-02-13T07:48:38.173Z,956.28
2018-02-13T07:49:38.188Z,956.3
2018-02-13T07:50:38.201Z,956.3
2018-02-13T07:51:38.208Z,956.27
2018-02-13T07:52:38.220Z,956.26
2018-02-13T07:53:38.231Z,956.26
2018-02-13T07:54:38.244Z,956.28
2018-02-13T07:55:38.254Z,956.23
2018-02-13T07:56:38.266Z,956.26
2018-02-13T07:57:38.278Z,956.25
2018-02-13T07:58:38.290Z,956.31
2018-02-13T07:59:38.301Z,956.27
2018-02-13T08:00:38.315Z,956.28
2018-02-13T08:01:38.326Z,956.25
2018-02-13T08:02:38.338Z,956.27
2018-02-13T08:03:38.350Z,956.27
2018-02-13T08:04:38.361Z,956.27
2018-02-13T08:05:38.373Z,956.2
2018-02-13T08:06:38.388Z,956.23
2018-02-13T08:07:38.399Z,956.2
2018-02-13T08:08:38.412Z,956.18
2018-02-13T08:09:38.424Z,956.2
2018-02-13T08:10:38.441Z,956.17
2018-02-13T08:11:38.449Z,956.2
2018-02-13T08:12:38.484Z,956.17
2018-02-13T08:13:38.474Z,956.15
2018-02-13T08:14:38.485Z,956.14
2018-02-13T08:15:38.497Z,956.14
2018-02-13T08:16:38.510Z,956.09
2018-02-13T08:17:38.522Z,956.12
2018-02-13T08:18:38.535Z,956.12
2018-02-13T08:19:38.548Z,956.14
2018-02-13T08:20:38.559Z,956.1
2018-02-13T08:21:38.574Z,956.12
2018-02-13T08:22:38.584Z,956.14
2018-02-13T08:23:38.599Z,956.15
2018-02-13T08:24:38.609Z,956.11
2018-02-13T08:25:38.621Z,956.11
2018-02-13T08:26:38.634Z,956.1
2018-02-13T08:27:38.646Z,956.14
2018-02-13T08:28:38.657Z,956.13
2018-02-13T08:29:38.669Z,956.1
2018-02-13T08:30:38.682Z,956.09
2018-02-13T08:31:38.695Z,956.07
2018-02-13T08:32:38.710Z,956.1
2018-02-13T08:33:38.766Z,956.08
2018-02-13T08:34:38.733Z,956.06
2018-02-13T08:35:38.745Z,956.09
2018-02-13T08:36:38.756Z,956.07
2018-02-13T08:37:38.769Z,956.06
2018-02-13T08:38:38.782Z,956.04
2018-02-13T08:39:38.793Z,956.05
2018-02-13T08:40:38.807Z,956.06
2018-02-13T08:41:38.818Z,956.04
2018-02-13T08:42:38.830Z,956.05
2018-02-13T08:43:38.842Z,956.05
2018-02-13T08:44:38.855Z,956.05
2018-02-13T08:45:38.868Z,956.01
2018-02-13T08:46:38.880Z,955.98
2018-02-13T08:47:38.893Z,955.95
2018-02-13T08:48:38.903Z,955.95
2018-02-13T08:49:38.915Z,955.96
2018-02-13T08:50:38.960Z,955.95
2018-02-13T08:51:38.941Z,955.93
2018-02-13T08:52:38.958Z,955.95
2018-02-13T08:53:38.965Z,955.93
2018-02-13T08:54:38.984Z,955.93
2018-02-13T08:55:38.989Z,955.92
2018-02-13T08:56:39.002Z,955.95
2018-02-13T08:57:39.016Z,955.93
2018-02-13T08:58:39.026Z,955.94
2018-02-13T08:59:39.039Z,955.95
2018-02-13T09:00:39.051Z,955.91
2018-02-13T09:01:39.064Z,955.94
2018-02-13T09:02:39.097Z,955.87
2018-02-13T09:03:39.089Z,955.88
2018-02-13T09:04:39.101Z,955.87
2018-02-13T09:05:39.115Z,955.85
2018-02-13T09:06:39.127Z,955.85
2018-02-13T09:07:39.142Z,955.86
2018-02-13T09:08:39.151Z,955.86
2018-02-13T09:09:39.166Z,955.8
2018-02-13T09:10:39.176Z,955.82
2018-02-13T09:11:39.188Z,955.76
2018-02-13T09:12:39.202Z,955.79
2018-02-13T09:13:39.215Z,955.8
2018-02-13T09:14:39.234Z,955.76
2018-02-13T09:15:39.239Z,955.78
2018-02-13T09:16:39.253Z,955.77
2018-02-13T09:17:39.266Z,955.75
2018-02-13T09:18:39.330Z,955.73
2018-02-13T09:19:39.289Z,955.73
2018-02-13T09:20:39.304Z,955.75
2018-02-13T09:21:39.317Z,955.73
2018-02-13T09:22:39.330Z,955.73
2018-02-13T09:23:39.358Z,955.68
2018-02-13T09:24:39.356Z,955.74
2018-02-13T09:25:39.370Z,955.7
2018-02-13T09:26:39.400Z,955.7
2018-02-13T09:27:39.395Z,955.67
2018-02-13T09:28:39.415Z,955.69
2018-02-13T09:29:39.422Z,955.65
2018-02-13T09:30:39.444Z,955.69
2018-02-13T09:31:39.448Z,955.66
2018-02-13T09:32:39.460Z,955.64
2018-02-13T09:33:39.472Z,955.65
2018-02-13T09:34:39.486Z,955.65
2018-02-13T09:35:39.500Z,955.64
2018-02-13T09:36:39.551Z,955.62
2018-02-13T09:37:39.525Z,955.63
2018-02-13T09:38:39.539Z,955.64
2018-02-13T09:39:39.553Z,955.61
2018-02-13T09:40:39.566Z,955.59
2018-02-13T09:41:39.579Z,955.58
2018-02-13T09:42:39.595Z,955.58
2018-02-13T09:43:39.609Z,955.54
2018-02-13T09:44:39.619Z,955.54
2018-02-13T09:45:39.652Z,955.52
2018-02-13T09:46:39.648Z,955.52
2018-02-13T09:47:39.661Z,955.54
2018-02-13T09:48:39.677Z,955.55
2018-02-13T09:49:39.687Z,955.49
2018-02-13T09:50:39.701Z,955.46
2018-02-13T09:51:39.713Z,955.45
2018-02-13T09:52:39.729Z,955.48
2018-02-13T09:53:39.747Z,955.47
2018-02-13T09:54:39.759Z,955.47
2018-02-13T09:55:39.769Z,955.45
2018-02-13T09:56:39.784Z,955.43
2018-02-13T09:57:39.799Z,955.44
2018-02-13T09:58:39.813Z,955.45
2018-02-13T09:59:39.843Z,955.42
2018-02-13T10:00:39.841Z,955.46
2018-02-13T10:01:39.856Z,955.36
2018-02-13T10:02:39.868Z,955.36
2018-02-13T10:03:39.884Z,955.33
2018-02-13T10:04:39.899Z,955.32
2018-02-13T10:05:39.914Z,955.33
2018-02-13T10:06:39.927Z,955.29
2018-02-13T10:07:39.943Z,955.3
2018-02-13T10:08:39.956Z,955.3
2018-02-13T10:09:39.971Z,955.32
2018-02-13T10:10:39.986Z,955.31
2018-02-13T10:11:40.001Z,955.3
2018-02-13T10:12:40.018Z,955.24
2018-02-13T10:13:40.032Z,955.3
2018-02-13T10:14:40.071Z,955.28
2018-02-13T10:15:40.062Z,955.3
2018-02-13T10:16:40.084Z,955.3
2018-02-13T10:17:40.094Z,955.32
2018-02-13T10:18:40.108Z,955.29
2018-02-13T10:19:40.126Z,955.35
2018-02-13T10:20:40.142Z,955.35
2018-02-13T10:21:40.156Z,955.38
2018-02-13T10:22:40.173Z,955.36
2018-02-13T10:23:40.191Z,955.32
2018-02-13T10:24:40.207Z,955.33
2018-02-13T10:25:40.226Z,955.29
2018-02-13T10:26:40.301Z,955.3
2018-02-13T10:27:40.261Z,955.23
2018-02-13T10:28:40.283Z,955.24
2018-02-13T10:29:40.301Z,955.28
2018-02-13T10:30:40.315Z,955.25
2018-02-13T10:31:40.336Z,955.17
2018-02-13T10:32:40.352Z,955.17
2018-02-13T10:33:40.373Z,955.16
2018-02-13T10:34:40.391Z,955.13
2018-02-13T10:35:40.409Z,955.12
2018-02-13T10:36:40.428Z,955.08
2018-02-13T10:37:40.447Z,955.07
2018-02-13T10:38:40.467Z,955.04
2018-02-13T10:39:40.482Z,955.01
2018-02-13T10:40:40.501Z,955.01
2018-02-13T10:41:40.519Z,955
2018-02-13T10:42:40.537Z,955.06
2018-02-13T10:43:40.563Z,954.95
2018-02-13T10:44:40.572Z,955.07
2018-02-13T10:45:40.589Z,955.1
2018-02-13T10:46:40.605Z,955.08
2018-02-13T10:47:40.624Z,955.07
2018-02-13T10:48:40.642Z,954.89
2018-02-13T10:49:40.662Z,954.97
2018-02-13T10:50:40.679Z,954.89
2018-02-13T10:51:40.707Z,954.86
2018-02-13T10:52:40.717Z,954.88
2018-02-13T10:53:40.738Z,954.86
2018-02-13T10:54:40.754Z,954.88
2018-02-13T10:55:40.774Z,954.86
2018-02-13T10:56:40.792Z,954.89
2018-02-13T10:57:40.809Z,954.86
2018-02-13T10:58:40.834Z,954.83
2018-02-13T10:59:40.848Z,954.81
2018-02-13T11:00:40.867Z,954.78
2018-02-13T11:01:40.888Z,954.74
2018-02-13T11:02:40.902Z,954.77
2018-02-13T11:03:40.927Z,954.75
2018-02-13T11:04:40.944Z,954.75
2018-02-13T11:05:40.957Z,954.69
2018-02-13T11:06:40.993Z,954.66
2018-02-13T11:07:40.991Z,954.66
2018-02-13T11:08:41.009Z,954.63
2018-02-13T11:09:41.028Z,954.63
2018-02-13T11:10:41.043Z,954.61
2018-02-13T11:11:41.062Z,954.61
2018-02-13T11:12:41.076Z,954.55
2018-02-13T11:13:41.099Z,954.55
2018-02-13T11:14:41.112Z,954.55
2018-02-13T11:15:41.130Z,954.5
2018-02-13T11:16:41.148Z,954.51
2018-02-13T11:17:41.163Z,954.47
2018-02-13T11:18:41.181Z,954.47
2018-02-13T11:19:41.196Z,954.48
2018-02-13T11:20:41.215Z,954.43
2018-02-13T11:21:41.230Z,954.42
2018-02-13T11:22:41.249Z,954.41
2018-02-13T11:23:41.263Z,954.61
2018-02-13T11:24:41.280Z,954.67
2018-02-13T11:25:41.297Z,954.68
2018-02-13T11:26:41.311Z,954.45
2018-02-13T11:27:41.329Z,954.39
2018-02-13T11:28:41.349Z,954.39
2018-02-13T11:29:41.363Z,954.34
2018-02-13T11:30:41.382Z,954.37
2018-02-13T11:31:41.399Z,954.37
2018-02-13T11:32:41.418Z,954.37
2018-02-13T11:33:41.436Z,954.36
2018-02-13T11:34:41.451Z,954.28
2018-02-13T11:35:41.470Z,954.28
2018-02-13T11:36:41.488Z,954.27
2018-02-13T11:37:41.507Z,954.25
2018-02-13T11:38:41.521Z,954.25
2018-02-13T11:39:41.539Z,954.21
2018-02-13T11:40:41.556Z,954.19
2018-02-13T11:41:41.574Z,954.16
2018-02-13T11:42:41.591Z,954.12
2018-02-13T11:43:41.630Z,954.16
2018-02-13T11:44:41.629Z,954.06
2018-02-13T11:45:41.645Z,954.05
2018-02-13T11:46:41.659Z,954.03
2018-02-13T11:47:41.675Z,953.99
2018-02-13T11:48:41.691Z,953.95
2018-02-13T11:49:41.706Z,953.92
2018-02-13T11:50:41.724Z,953.97
2018-02-13T11:51:41.743Z,953.92
2018-02-13T11:52:41.756Z,953.94
2018-02-13T11:53:41.771Z,953.91
2018-02-13T11:54:41.788Z,953.91
2018-02-13T11:55:41.804Z,953.87
2018-02-13T11:56:41.820Z,953.82
2018-02-13T11:57:41.837Z,953.85
2018-02-13T11:58:41.853Z,953.85
2018-02-13T11:59:41.871Z,953.87
2018-02-13T12:00:41.885Z,953.81
2018-02-13T12:01:41.900Z,953.79
2018-02-13T12:02:41.916Z,953.77
2018-02-13T12:03:41.932Z,953.76
2018-02-13T12:04:41.947Z,953.76
2018-02-13T12:05:41.985Z,953.73
2018-02-13T12:06:41.980Z,953.71
2018-02-13T12:07:41.997Z,953.72
2018-02-13T12:08:42.012Z,953.74
2018-02-13T12:09:42.029Z,953.71
2018-02-13T12:10:42.043Z,953.68
2018-02-13T12:11:42.062Z,953.7
2018-02-13T12:12:42.076Z,953.67
2018-02-13T12:13:42.092Z,953.69
2018-02-13T12:14:42.107Z,953.62
2018-02-13T12:15:42.124Z,953.58
2018-02-13T12:16:42.139Z,953.61
2018-02-13T12:17:42.158Z,953.6
2018-02-13T12:18:42.172Z,953.58
2018-02-13T12:19:42.209Z,953.72
2018-02-13T12:20:42.210Z,953.61
2018-02-13T12:21:42.220Z,953.85
2018-02-13T12:22:42.238Z,954.02
2018-02-13T12:23:42.253Z,953.52
2018-02-13T12:24:42.275Z,953.59
2018-02-13T12:25:42.287Z,953.51
2018-02-13T12:26:42.373Z,953.65
2018-02-13T12:27:42.336Z,953.49
2018-02-13T12:28:42.343Z,953.49
2018-02-13T12:29:42.360Z,953.98
2018-02-13T12:30:42.379Z,954.02
2018-02-13T12:31:42.397Z,954.03